sensor_id;sensor_type;location;lat;lon;timestamp;pressure;altitude;pressure_sealevel;temperature;humidity
54270;BME280;40181;51.560;13.000;2023-08-06T00:00:15;99879.22;;;18.47;89.13
54270;BME280;40181;51.560;13.000;2023-08-06T00:02:44;99876.28;;;18.56;88.67
54270;BME280;40181;51.560;13.000;2023-08-06T00:05:14;99879.03;;;18.53;88.51
54270;BME280;40181;51.560;13.000;2023-08-06T00:07:46;99876.06;;;18.62;88.31
54270;BME280;40181;51.560;13.000;2023-08-06T00:10:18;99864.22;;;18.44;89.02
54270;BME280;40181;51.560;13.000;2023-08-06T00:12:47;99860.41;;;18.53;88.45
54270;BME280;40181;51.560;13.000;2023-08-06T00:15:16;99853.69;;;18.70;87.74
54270;BME280;40181;51.560;13.000;2023-08-06T00:17:46;99869.31;;;18.52;89.26
54270;BME280;40181;51.560;13.000;2023-08-06T00:20:15;99869.25;;;18.53;88.92
54270;BME280;40181;51.560;13.000;2023-08-06T00:22:44;99854.00;;;18.59;88.72
54270;BME280;40181;51.560;13.000;2023-08-06T00:25:13;99868.88;;;18.37;89.67
54270;BME280;40181;51.560;13.000;2023-08-06T00:27:45;99869.81;;;18.35;89.94
54270;BME280;40181;51.560;13.000;2023-08-06T00:30:14;99859.53;;;18.52;88.92
54270;BME280;40181;51.560;13.000;2023-08-06T00:32:43;99848.03;;;18.52;89.26
54270;BME280;40181;51.560;13.000;2023-08-06T00:35:12;99858.22;;;18.37;89.86
54270;BME280;40181;51.560;13.000;2023-08-06T00:37:42;99851.56;;;18.22;90.80
54270;BME280;40181;51.560;13.000;2023-08-06T00:40:11;99857.06;;;18.46;89.33
54270;BME280;40181;51.560;13.000;2023-08-06T00:42:40;99846.31;;;18.49;89.16
54270;BME280;40181;51.560;13.000;2023-08-06T00:45:12;99835.69;;;18.49;89.05
54270;BME280;40181;51.560;13.000;2023-08-06T00:47:42;99828.22;;;18.34;90.27
54270;BME280;40181;51.560;13.000;2023-08-06T00:50:11;99837.19;;;18.30;90.85
54270;BME280;40181;51.560;13.000;2023-08-06T00:52:41;99827.88;;;18.15;91.43
54270;BME280;40181;51.560;13.000;2023-08-06T00:55:10;99828.81;;;18.14;91.10
54270;BME280;40181;51.560;13.000;2023-08-06T00:57:39;99837.41;;;18.22;91.22
54270;BME280;40181;51.560;13.000;2023-08-06T01:00:12;99832.34;;;18.43;90.17
54270;BME280;40181;51.560;13.000;2023-08-06T01:02:42;99828.75;;;18.15;91.00
54270;BME280;40181;51.560;13.000;2023-08-06T01:05:11;99824.91;;;18.25;90.28
54270;BME280;40181;51.560;13.000;2023-08-06T01:07:50;99827.56;;;18.25;90.73
54270;BME280;40181;51.560;13.000;2023-08-06T01:10:34;99824.97;;;18.22;90.50
54270;BME280;40181;51.560;13.000;2023-08-06T01:13:16;99825.47;;;18.35;90.26
54270;BME280;40181;51.560;13.000;2023-08-06T01:15:55;99824.16;;;18.20;90.93
54270;BME280;40181;51.560;13.000;2023-08-06T01:18:25;99811.63;;;18.25;90.64
54270;BME280;40181;51.560;13.000;2023-08-06T01:20:56;99810.38;;;18.37;90.19
54270;BME280;40181;51.560;13.000;2023-08-06T01:23:26;99809.81;;;18.26;91.11
54270;BME280;40181;51.560;13.000;2023-08-06T01:26:01;99821.47;;;18.22;91.25
54270;BME280;40181;51.560;13.000;2023-08-06T01:28:38;99818.00;;;17.88;92.62
54270;BME280;40181;51.560;13.000;2023-08-06T01:31:21;99814.75;;;18.08;91.82
54270;BME280;40181;51.560;13.000;2023-08-06T01:33:52;99814.41;;;17.89;92.45
54270;BME280;40181;51.560;13.000;2023-08-06T01:36:25;99812.09;;;17.77;93.97
54270;BME280;40181;51.560;13.000;2023-08-06T01:38:55;99802.53;;;17.71;93.97
54270;BME280;40181;51.560;13.000;2023-08-06T01:41:25;99802.09;;;17.87;92.49
54270;BME280;40181;51.560;13.000;2023-08-06T01:43:54;99802.19;;;17.52;94.08
54270;BME280;40181;51.560;13.000;2023-08-06T01:46:23;99794.81;;;17.62;93.86
54270;BME280;40181;51.560;13.000;2023-08-06T01:48:52;99801.28;;;17.51;93.88
54270;BME280;40181;51.560;13.000;2023-08-06T01:51:21;99795.44;;;17.72;93.37
54270;BME280;40181;51.560;13.000;2023-08-06T01:53:53;99797.13;;;17.42;94.30
54270;BME280;40181;51.560;13.000;2023-08-06T01:56:22;99775.38;;;17.61;93.40
54270;BME280;40181;51.560;13.000;2023-08-06T01:58:51;99778.97;;;17.59;92.75
54270;BME280;40181;51.560;13.000;2023-08-06T02:01:20;99784.66;;;17.45;93.46
54270;BME280;40181;51.560;13.000;2023-08-06T02:03:50;99777.63;;;17.44;93.87
54270;BME280;40181;51.560;13.000;2023-08-06T02:06:19;99773.59;;;17.60;92.23
54270;BME280;40181;51.560;13.000;2023-08-06T02:08:50;99778.88;;;17.62;92.38
54270;BME280;40181;51.560;13.000;2023-08-06T02:11:19;99765.47;;;17.66;92.09
54270;BME280;40181;51.560;13.000;2023-08-06T02:13:49;99755.47;;;17.45;93.39
54270;BME280;40181;51.560;13.000;2023-08-06T02:16:18;99763.38;;;17.46;93.35
54270;BME280;40181;51.560;13.000;2023-08-06T02:18:47;99770.22;;;17.55;94.29
54270;BME280;40181;51.560;13.000;2023-08-06T02:21:17;99758.25;;;17.40;94.49
54270;BME280;40181;51.560;13.000;2023-08-06T02:23:46;99768.47;;;17.22;95.67
54270;BME280;40181;51.560;13.000;2023-08-06T02:26:17;99760.31;;;17.60;93.97
54270;BME280;40181;51.560;13.000;2023-08-06T02:28:46;99748.81;;;17.61;93.54
54270;BME280;40181;51.560;13.000;2023-08-06T02:31:16;99745.41;;;17.23;95.89
54270;BME280;40181;51.560;13.000;2023-08-06T02:33:45;99740.00;;;17.59;94.23
54270;BME280;40181;51.560;13.000;2023-08-06T02:36:14;99741.81;;;17.57;94.27
54270;BME280;40181;51.560;13.000;2023-08-06T02:38:43;99728.03;;;17.44;95.68
54270;BME280;40181;51.560;13.000;2023-08-06T02:41:12;99726.66;;;17.62;94.02
54270;BME280;40181;51.560;13.000;2023-08-06T02:43:44;99728.59;;;17.55;94.59
54270;BME280;40181;51.560;13.000;2023-08-06T02:46:13;99723.91;;;17.34;96.12
54270;BME280;40181;51.560;13.000;2023-08-06T02:48:42;99720.19;;;17.39;95.64
54270;BME280;40181;51.560;13.000;2023-08-06T02:51:11;99721.28;;;17.32;96.08
54270;BME280;40181;51.560;13.000;2023-08-06T02:53:41;99722.84;;;17.39;96.38
54270;BME280;40181;51.560;13.000;2023-08-06T02:56:10;99722.38;;;17.25;96.90
54270;BME280;40181;51.560;13.000;2023-08-06T02:58:39;99714.94;;;17.38;96.41
54270;BME280;40181;51.560;13.000;2023-08-06T03:01:11;99709.38;;;17.47;95.58
54270;BME280;40181;51.560;13.000;2023-08-06T03:03:40;99703.44;;;17.37;96.63
54270;BME280;40181;51.560;13.000;2023-08-06T03:06:09;99716.22;;;17.54;95.00
54270;BME280;40181;51.560;13.000;2023-08-06T03:08:38;99703.00;;;17.53;95.15
54270;BME280;40181;51.560;13.000;2023-08-06T03:11:08;99702.44;;;17.41;95.60
54270;BME280;40181;51.560;13.000;2023-08-06T03:13:37;99707.03;;;17.36;95.96
54270;BME280;40181;51.560;13.000;2023-08-06T03:16:06;99702.00;;;17.25;97.02
54270;BME280;40181;51.560;13.000;2023-08-06T03:18:38;99708.41;;;17.50;95.71
54270;BME280;40181;51.560;13.000;2023-08-06T03:21:07;99691.94;;;17.37;96.09
54270;BME280;40181;51.560;13.000;2023-08-06T03:23:36;99695.47;;;17.37;96.63
54270;BME280;40181;51.560;13.000;2023-08-06T03:26:05;99693.31;;;17.20;97.17
54270;BME280;40181;51.560;13.000;2023-08-06T03:28:34;99681.78;;;17.21;97.60
54270;BME280;40181;51.560;13.000;2023-08-06T03:31:04;99687.03;;;17.23;97.23
54270;BME280;40181;51.560;13.000;2023-08-06T03:33:33;99677.28;;;17.23;97.35
54270;BME280;40181;51.560;13.000;2023-08-06T03:36:05;99682.47;;;17.28;96.51
54270;BME280;40181;51.560;13.000;2023-08-06T03:38:34;99686.03;;;17.27;96.47
54270;BME280;40181;51.560;13.000;2023-08-06T03:41:03;99691.22;;;16.98;98.26
54270;BME280;40181;51.560;13.000;2023-08-06T03:43:32;99690.28;;;17.01;98.60
54270;BME280;40181;51.560;13.000;2023-08-06T03:46:01;99676.09;;;17.02;99.15
54270;BME280;40181;51.560;13.000;2023-08-06T03:48:30;99670.56;;;17.10;98.82
54270;BME280;40181;51.560;13.000;2023-08-06T03:50:59;99671.22;;;17.18;97.92
54270;BME280;40181;51.560;13.000;2023-08-06T03:53:31;99664.28;;;17.14;98.22
54270;BME280;40181;51.560;13.000;2023-08-06T03:56:00;99675.38;;;17.28;97.53
54270;BME280;40181;51.560;13.000;2023-08-06T03:58:29;99653.25;;;17.30;97.38
54270;BME280;40181;51.560;13.000;2023-08-06T04:00:59;99659.41;;;17.30;97.32
54270;BME280;40181;51.560;13.000;2023-08-06T04:03:29;99655.75;;;17.34;97.42
54270;BME280;40181;51.560;13.000;2023-08-06T04:05:58;99649.56;;;17.34;97.71
54270;BME280;40181;51.560;13.000;2023-08-06T04:08:30;99643.44;;;17.32;97.63
54270;BME280;40181;51.560;13.000;2023-08-06T04:11:00;99642.09;;;17.17;97.84
54270;BME280;40181;51.560;13.000;2023-08-06T04:13:29;99645.81;;;17.11;99.00
54270;BME280;40181;51.560;13.000;2023-08-06T04:16:01;99630.09;;;17.03;99.70
54270;BME280;40181;51.560;13.000;2023-08-06T04:18:30;99639.72;;;17.07;99.13
54270;BME280;40181;51.560;13.000;2023-08-06T04:21:01;99637.13;;;17.04;99.50
54270;BME280;40181;51.560;13.000;2023-08-06T04:23:32;99643.38;;;16.68;100.00
54270;BME280;40181;51.560;13.000;2023-08-06T04:26:02;99637.28;;;16.98;100.00
54270;BME280;40181;51.560;13.000;2023-08-06T04:28:31;99643.16;;;16.76;100.00
54270;BME280;40181;51.560;13.000;2023-08-06T04:31:00;99641.28;;;16.81;100.00
54270;BME280;40181;51.560;13.000;2023-08-06T04:33:29;99633.47;;;16.75;100.00
54270;BME280;40181;51.560;13.000;2023-08-06T04:35:59;99626.97;;;16.87;100.00
54270;BME280;40181;51.560;13.000;2023-08-06T04:38:28;99621.44;;;16.95;100.00
54270;BME280;40181;51.560;13.000;2023-08-06T04:41:01;99622.44;;;16.91;100.00
54270;BME280;40181;51.560;13.000;2023-08-06T04:43:31;99616.13;;;16.95;100.00
54270;BME280;40181;51.560;13.000;2023-08-06T04:46:00;99623.06;;;17.00;100.00
54270;BME280;40181;51.560;13.000;2023-08-06T04:48:29;99623.97;;;16.99;100.00
54270;BME280;40181;51.560;13.000;2023-08-06T04:50:58;99620.72;;;16.90;100.00
54270;BME280;40181;51.560;13.000;2023-08-06T04:53:27;99609.75;;;17.04;100.00
54270;BME280;40181;51.560;13.000;2023-08-06T04:55:57;99618.19;;;16.85;100.00
54270;BME280;40181;51.560;13.000;2023-08-06T04:58:28;99605.38;;;17.01;100.00
54270;BME280;40181;51.560;13.000;2023-08-06T05:00:58;99610.28;;;16.82;100.00
54270;BME280;40181;51.560;13.000;2023-08-06T05:03:27;99602.47;;;16.77;100.00
54270;BME280;40181;51.560;13.000;2023-08-06T05:05:56;99599.41;;;16.93;100.00
54270;BME280;40181;51.560;13.000;2023-08-06T05:08:25;99601.09;;;16.95;100.00
54270;BME280;40181;51.560;13.000;2023-08-06T05:10:54;99608.66;;;17.11;100.00
54270;BME280;40181;51.560;13.000;2023-08-06T05:13:26;99601.41;;;17.16;100.00
54270;BME280;40181;51.560;13.000;2023-08-06T05:15:55;99598.72;;;17.18;100.00
54270;BME280;40181;51.560;13.000;2023-08-06T05:18:24;99595.56;;;17.05;100.00
54270;BME280;40181;51.560;13.000;2023-08-06T05:20:54;99591.31;;;17.29;100.00
54270;BME280;40181;51.560;13.000;2023-08-06T05:23:23;99591.81;;;17.12;100.00
54270;BME280;40181;51.560;13.000;2023-08-06T05:25:52;99596.38;;;16.73;100.00
54270;BME280;40181;51.560;13.000;2023-08-06T05:28:21;99581.28;;;17.09;100.00
54270;BME280;40181;51.560;13.000;2023-08-06T05:30:53;99588.25;;;17.13;100.00
54270;BME280;40181;51.560;13.000;2023-08-06T05:33:22;99589.03;;;17.17;100.00
54270;BME280;40181;51.560;13.000;2023-08-06T05:35:51;99587.38;;;17.12;100.00
54270;BME280;40181;51.560;13.000;2023-08-06T05:38:20;99581.88;;;17.19;100.00
54270;BME280;40181;51.560;13.000;2023-08-06T05:40:50;99591.28;;;17.31;100.00
54270;BME280;40181;51.560;13.000;2023-08-06T05:43:19;99588.47;;;17.35;100.00
54270;BME280;40181;51.560;13.000;2023-08-06T05:45:49;99588.66;;;17.29;100.00
54270;BME280;40181;51.560;13.000;2023-08-06T05:48:21;99592.06;;;17.34;100.00
54270;BME280;40181;51.560;13.000;2023-08-06T05:50:51;99589.81;;;17.20;100.00
54270;BME280;40181;51.560;13.000;2023-08-06T05:53:20;99590.78;;;17.46;100.00
54270;BME280;40181;51.560;13.000;2023-08-06T05:55:50;99596.22;;;17.41;100.00
54270;BME280;40181;51.560;13.000;2023-08-06T05:58:19;99591.06;;;17.07;100.00
54270;BME280;40181;51.560;13.000;2023-08-06T06:00:53;99584.38;;;17.25;100.00
54270;BME280;40181;51.560;13.000;2023-08-06T06:03:22;99588.69;;;17.27;100.00
54270;BME280;40181;51.560;13.000;2023-08-06T06:05:52;99586.75;;;17.34;100.00
54270;BME280;40181;51.560;13.000;2023-08-06T06:08:21;99592.22;;;17.28;100.00
54270;BME280;40181;51.560;13.000;2023-08-06T06:10:50;99590.66;;;17.51;100.00
54270;BME280;40181;51.560;13.000;2023-08-06T06:13:19;99582.53;;;17.55;100.00
54270;BME280;40181;51.560;13.000;2023-08-06T06:15:48;99585.44;;;17.48;100.00
54270;BME280;40181;51.560;13.000;2023-08-06T06:18:20;99578.06;;;17.58;100.00
54270;BME280;40181;51.560;13.000;2023-08-06T06:20:49;99583.16;;;17.35;100.00
54270;BME280;40181;51.560;13.000;2023-08-06T06:23:18;99582.88;;;17.45;100.00
54270;BME280;40181;51.560;13.000;2023-08-06T06:25:48;99587.38;;;17.42;100.00
54270;BME280;40181;51.560;13.000;2023-08-06T06:28:18;99585.09;;;16.98;100.00
54270;BME280;40181;51.560;13.000;2023-08-06T06:30:48;99579.00;;;17.26;100.00
54270;BME280;40181;51.560;13.000;2023-08-06T06:33:19;99576.72;;;17.14;100.00
54270;BME280;40181;51.560;13.000;2023-08-06T06:35:49;99582.22;;;17.38;100.00
54270;BME280;40181;51.560;13.000;2023-08-06T06:38:18;99579.63;;;17.35;100.00
54270;BME280;40181;51.560;13.000;2023-08-06T06:40:53;99582.81;;;17.46;100.00
54270;BME280;40181;51.560;13.000;2023-08-06T06:43:23;99575.59;;;17.51;100.00
54270;BME280;40181;51.560;13.000;2023-08-06T06:45:52;99582.84;;;17.16;100.00
54270;BME280;40181;51.560;13.000;2023-08-06T06:48:25;99578.78;;;17.34;100.00
54270;BME280;40181;51.560;13.000;2023-08-06T06:50:55;99571.47;;;17.42;99.78
54270;BME280;40181;51.560;13.000;2023-08-06T06:53:24;99584.63;;;17.74;100.00
54270;BME280;40181;51.560;13.000;2023-08-06T06:55:56;99586.69;;;17.36;99.57
54270;BME280;40181;51.560;13.000;2023-08-06T06:58:29;99583.38;;;17.58;99.68
54270;BME280;40181;51.560;13.000;2023-08-06T07:00:58;99573.59;;;17.58;98.81
54270;BME280;40181;51.560;13.000;2023-08-06T07:03:30;99584.53;;;17.77;98.66
54270;BME280;40181;51.560;13.000;2023-08-06T07:05:59;99590.63;;;17.81;100.00
54270;BME280;40181;51.560;13.000;2023-08-06T07:08:29;99578.44;;;17.74;98.49
54270;BME280;40181;51.560;13.000;2023-08-06T07:11:01;99575.63;;;17.78;98.18
54270;BME280;40181;51.560;13.000;2023-08-06T07:13:31;99580.13;;;17.76;98.95
54270;BME280;40181;51.560;13.000;2023-08-06T07:16:01;99579.25;;;17.76;99.05
54270;BME280;40181;51.560;13.000;2023-08-06T07:18:34;99571.13;;;17.80;99.08
54270;BME280;40181;51.560;13.000;2023-08-06T07:21:03;99575.16;;;17.94;98.56
54270;BME280;40181;51.560;13.000;2023-08-06T07:23:32;99581.88;;;17.77;98.80
54270;BME280;40181;51.560;13.000;2023-08-06T07:26:01;99583.00;;;17.97;98.60
54270;BME280;40181;51.560;13.000;2023-08-06T07:28:30;99576.44;;;17.80;97.47
54270;BME280;40181;51.560;13.000;2023-08-06T07:30:59;99580.00;;;17.81;98.24
54270;BME280;40181;51.560;13.000;2023-08-06T07:33:30;99570.72;;;17.66;98.60
54270;BME280;40181;51.560;13.000;2023-08-06T07:36:08;99578.81;;;17.90;99.45
54270;BME280;40181;51.560;13.000;2023-08-06T07:38:55;99567.66;;;17.50;99.98
54270;BME280;40181;51.560;13.000;2023-08-06T07:41:37;99583.19;;;17.91;99.56
54270;BME280;40181;51.560;13.000;2023-08-06T07:44:06;99572.19;;;18.03;99.38
54270;BME280;40181;51.560;13.000;2023-08-06T07:46:35;99571.38;;;18.01;98.00
54270;BME280;40181;51.560;13.000;2023-08-06T07:49:08;99573.44;;;17.91;97.89
54270;BME280;40181;51.560;13.000;2023-08-06T07:51:38;99579.41;;;17.98;99.26
54270;BME280;40181;51.560;13.000;2023-08-06T07:54:08;99585.03;;;17.60;99.56
54270;BME280;40181;51.560;13.000;2023-08-06T07:56:37;99582.50;;;17.86;99.59
54270;BME280;40181;51.560;13.000;2023-08-06T07:59:06;99580.47;;;17.94;99.31
54270;BME280;40181;51.560;13.000;2023-08-06T08:01:35;99582.50;;;17.86;99.40
54270;BME280;40181;51.560;13.000;2023-08-06T08:04:07;99575.19;;;17.64;100.00
54270;BME280;40181;51.560;13.000;2023-08-06T08:06:36;99571.06;;;17.83;99.96
54270;BME280;40181;51.560;13.000;2023-08-06T08:09:05;99578.06;;;18.13;99.12
54270;BME280;40181;51.560;13.000;2023-08-06T08:11:34;99574.75;;;18.06;99.24
54270;BME280;40181;51.560;13.000;2023-08-06T08:14:03;99567.59;;;18.08;99.64
54270;BME280;40181;51.560;13.000;2023-08-06T08:16:33;99565.94;;;18.06;99.26
54270;BME280;40181;51.560;13.000;2023-08-06T08:19:02;99565.31;;;18.24;99.33
54270;BME280;40181;51.560;13.000;2023-08-06T08:21:34;99561.41;;;18.35;98.37
54270;BME280;40181;51.560;13.000;2023-08-06T08:24:04;99556.25;;;18.03;97.73
54270;BME280;40181;51.560;13.000;2023-08-06T08:26:33;99549.06;;;17.78;99.54
54270;BME280;40181;51.560;13.000;2023-08-06T08:29:03;99557.56;;;17.90;99.57
54270;BME280;40181;51.560;13.000;2023-08-06T08:31:32;99549.84;;;17.53;100.00
54270;BME280;40181;51.560;13.000;2023-08-06T08:34:04;99548.97;;;17.81;100.00
54270;BME280;40181;51.560;13.000;2023-08-06T08:36:36;99539.28;;;18.07;100.00
54270;BME280;40181;51.560;13.000;2023-08-06T08:39:05;99546.78;;;18.21;100.00
54270;BME280;40181;51.560;13.000;2023-08-06T08:41:37;99542.94;;;18.03;100.00
54270;BME280;40181;51.560;13.000;2023-08-06T08:44:08;99534.72;;;17.84;100.00
54270;BME280;40181;51.560;13.000;2023-08-06T08:46:40;99532.06;;;17.84;100.00
54270;BME280;40181;51.560;13.000;2023-08-06T08:49:10;99529.56;;;17.79;100.00
54270;BME280;40181;51.560;13.000;2023-08-06T08:51:43;99529.38;;;18.13;100.00
54270;BME280;40181;51.560;13.000;2023-08-06T08:54:15;99537.81;;;18.25;100.00
54270;BME280;40181;51.560;13.000;2023-08-06T08:56:45;99531.59;;;17.98;100.00
54270;BME280;40181;51.560;13.000;2023-08-06T08:59:14;99526.53;;;18.19;100.00
54270;BME280;40181;51.560;13.000;2023-08-06T09:01:46;99506.38;;;18.37;100.00
54270;BME280;40181;51.560;13.000;2023-08-06T09:04:18;99524.69;;;18.45;99.52
54270;BME280;40181;51.560;13.000;2023-08-06T09:06:50;99516.56;;;18.24;99.33
54270;BME280;40181;51.560;13.000;2023-08-06T09:09:24;99511.81;;;18.34;99.58
54270;BME280;40181;51.560;13.000;2023-08-06T09:11:59;99503.34;;;18.48;100.00
54270;BME280;40181;51.560;13.000;2023-08-06T09:14:30;99508.44;;;18.29;100.00
54270;BME280;40181;51.560;13.000;2023-08-06T09:16:59;99518.09;;;18.31;99.82
54270;BME280;40181;51.560;13.000;2023-08-06T09:19:29;99506.47;;;18.08;99.80
54270;BME280;40181;51.560;13.000;2023-08-06T09:22:05;99505.72;;;18.05;99.63
54270;BME280;40181;51.560;13.000;2023-08-06T09:24:38;99507.06;;;17.90;100.00
54270;BME280;40181;51.560;13.000;2023-08-06T09:27:11;99504.81;;;18.06;100.00
54270;BME280;40181;51.560;13.000;2023-08-06T09:29:41;99495.19;;;18.00;100.00
54270;BME280;40181;51.560;13.000;2023-08-06T09:32:11;99497.13;;;17.96;100.00
54270;BME280;40181;51.560;13.000;2023-08-06T09:34:42;99496.69;;;17.83;100.00
54270;BME280;40181;51.560;13.000;2023-08-06T09:37:14;99504.38;;;18.18;100.00
54270;BME280;40181;51.560;13.000;2023-08-06T09:39:43;99494.94;;;18.35;100.00
54270;BME280;40181;51.560;13.000;2023-08-06T09:42:15;99492.53;;;18.52;100.00
54270;BME280;40181;51.560;13.000;2023-08-06T09:44:44;99495.28;;;18.25;100.00
54270;BME280;40181;51.560;13.000;2023-08-06T09:47:15;99491.78;;;18.49;99.76
54270;BME280;40181;51.560;13.000;2023-08-06T09:49:48;99497.63;;;18.33;100.00
54270;BME280;40181;51.560;13.000;2023-08-06T09:52:20;99483.34;;;18.37;100.00
54270;BME280;40181;51.560;13.000;2023-08-06T09:54:50;99489.28;;;18.44;99.88
54270;BME280;40181;51.560;13.000;2023-08-06T09:57:20;99501.56;;;18.23;100.00
54270;BME280;40181;51.560;13.000;2023-08-06T09:59:50;99488.94;;;18.53;100.00
54270;BME280;40181;51.560;13.000;2023-08-06T10:02:25;99490.84;;;18.50;99.31
54270;BME280;40181;51.560;13.000;2023-08-06T10:04:55;99480.81;;;18.58;100.00
54270;BME280;40181;51.560;13.000;2023-08-06T10:07:29;99474.47;;;18.37;100.00
54270;BME280;40181;51.560;13.000;2023-08-06T10:09:59;99484.97;;;18.16;100.00
54270;BME280;40181;51.560;13.000;2023-08-06T10:12:30;99471.47;;;18.46;100.00
54270;BME280;40181;51.560;13.000;2023-08-06T10:15:06;99471.66;;;18.42;100.00
54270;BME280;40181;51.560;13.000;2023-08-06T10:17:38;99475.28;;;18.39;100.00
54270;BME280;40181;51.560;13.000;2023-08-06T10:20:08;99471.81;;;18.37;99.32
54270;BME280;40181;51.560;13.000;2023-08-06T10:22:42;99469.00;;;18.42;97.78
54270;BME280;40181;51.560;13.000;2023-08-06T10:25:16;99464.16;;;18.28;98.60
54270;BME280;40181;51.560;13.000;2023-08-06T10:27:53;99472.59;;;18.15;98.05
54270;BME280;40181;51.560;13.000;2023-08-06T10:30:24;99457.94;;;18.29;97.08
54270;BME280;40181;51.560;13.000;2023-08-06T10:32:54;99450.66;;;18.58;96.87
54270;BME280;40181;51.560;13.000;2023-08-06T10:35:35;99461.25;;;18.59;96.70
54270;BME280;40181;51.560;13.000;2023-08-06T10:38:09;99462.13;;;18.60;97.69
54270;BME280;40181;51.560;13.000;2023-08-06T10:40:40;99456.91;;;18.57;95.76
54270;BME280;40181;51.560;13.000;2023-08-06T10:43:25;99453.41;;;18.31;95.56
54270;BME280;40181;51.560;13.000;2023-08-06T10:45:56;99451.25;;;18.42;96.02
54270;BME280;40181;51.560;13.000;2023-08-06T10:48:30;99456.31;;;18.24;96.69
54270;BME280;40181;51.560;13.000;2023-08-06T10:51:02;99433.91;;;18.06;96.94
54270;BME280;40181;51.560;13.000;2023-08-06T10:53:34;99436.16;;;18.43;96.84
54270;BME280;40181;51.560;13.000;2023-08-06T10:56:12;99438.81;;;18.43;96.65
54270;BME280;40181;51.560;13.000;2023-08-06T10:58:42;99442.00;;;18.02;96.87
54270;BME280;40181;51.560;13.000;2023-08-06T11:01:12;99426.09;;;18.51;96.32
54270;BME280;40181;51.560;13.000;2023-08-06T11:03:42;99433.63;;;18.39;95.81
54270;BME280;40181;51.560;13.000;2023-08-06T11:06:17;99423.03;;;18.62;95.94
54270;BME280;40181;51.560;13.000;2023-08-06T11:08:51;99421.66;;;18.51;92.71
54270;BME280;40181;51.560;13.000;2023-08-06T11:11:22;99416.63;;;18.67;93.62
54270;BME280;40181;51.560;13.000;2023-08-06T11:13:52;99421.19;;;18.64;93.65
54270;BME280;40181;51.560;13.000;2023-08-06T11:16:23;99403.31;;;18.44;94.09
54270;BME280;40181;51.560;13.000;2023-08-06T11:18:52;99397.66;;;18.53;91.96
54270;BME280;40181;51.560;13.000;2023-08-06T11:21:23;99399.34;;;18.78;91.98
54270;BME280;40181;51.560;13.000;2023-08-06T11:23:55;99390.69;;;18.95;90.90
54270;BME280;40181;51.560;13.000;2023-08-06T11:26:24;99399.31;;;18.79;88.81
54270;BME280;40181;51.560;13.000;2023-08-06T11:28:54;99397.81;;;18.72;91.10
54270;BME280;40181;51.560;13.000;2023-08-06T11:31:23;99381.72;;;18.75;90.10
54270;BME280;40181;51.560;13.000;2023-08-06T11:33:53;99384.25;;;19.02;87.91
54270;BME280;40181;51.560;13.000;2023-08-06T11:36:29;99383.94;;;19.32;87.63
54270;BME280;40181;51.560;13.000;2023-08-06T11:39:02;99385.78;;;19.08;85.73
54270;BME280;40181;51.560;13.000;2023-08-06T11:41:33;99382.28;;;18.84;86.35
54270;BME280;40181;51.560;13.000;2023-08-06T11:44:05;99376.41;;;18.98;85.88
54270;BME280;40181;51.560;13.000;2023-08-06T11:46:51;99383.38;;;19.24;86.08
54270;BME280;40181;51.560;13.000;2023-08-06T11:49:39;99378.34;;;19.16;84.78
54270;BME280;40181;51.560;13.000;2023-08-06T11:52:17;99372.00;;;19.41;84.02
54270;BME280;40181;51.560;13.000;2023-08-06T11:55:01;99371.00;;;19.44;84.89
54270;BME280;40181;51.560;13.000;2023-08-06T11:57:32;99368.78;;;19.33;83.15
54270;BME280;40181;51.560;13.000;2023-08-06T12:00:03;99371.16;;;19.61;82.77
54270;BME280;40181;51.560;13.000;2023-08-06T12:02:33;99359.84;;;19.77;85.43
54270;BME280;40181;51.560;13.000;2023-08-06T12:05:09;99364.97;;;19.82;80.79
54270;BME280;40181;51.560;13.000;2023-08-06T12:07:41;99359.13;;;19.93;81.34
54270;BME280;40181;51.560;13.000;2023-08-06T12:10:14;99360.91;;;19.73;78.58
54270;BME280;40181;51.560;13.000;2023-08-06T12:12:45;99359.06;;;19.96;81.51
54270;BME280;40181;51.560;13.000;2023-08-06T12:15:16;99370.34;;;20.01;80.43
54270;BME280;40181;51.560;13.000;2023-08-06T12:17:45;99370.22;;;19.83;77.09
54270;BME280;40181;51.560;13.000;2023-08-06T12:20:14;99353.91;;;19.91;76.83
54270;BME280;40181;51.560;13.000;2023-08-06T12:22:44;99369.06;;;19.89;75.54
54270;BME280;40181;51.560;13.000;2023-08-06T12:25:15;99355.34;;;19.98;75.76
54270;BME280;40181;51.560;13.000;2023-08-06T12:27:46;99358.56;;;19.86;75.72
54270;BME280;40181;51.560;13.000;2023-08-06T12:30:15;99353.91;;;19.91;74.05
54270;BME280;40181;51.560;13.000;2023-08-06T12:32:44;99354.81;;;20.11;74.89
54270;BME280;40181;51.560;13.000;2023-08-06T12:35:13;99347.03;;;19.85;72.43
54270;BME280;40181;51.560;13.000;2023-08-06T12:37:43;99347.34;;;20.19;74.35
54270;BME280;40181;51.560;13.000;2023-08-06T12:40:12;99351.47;;;20.26;74.10
54270;BME280;40181;51.560;13.000;2023-08-06T12:42:44;99354.72;;;20.12;72.66
54270;BME280;40181;51.560;13.000;2023-08-06T12:45:14;99353.81;;;20.32;72.73
54270;BME280;40181;51.560;13.000;2023-08-06T12:47:46;99341.94;;;20.40;72.40
54270;BME280;40181;51.560;13.000;2023-08-06T12:50:15;99345.28;;;20.45;71.34
54270;BME280;40181;51.560;13.000;2023-08-06T12:52:45;99340.06;;;20.42;72.46
54270;BME280;40181;51.560;13.000;2023-08-06T12:55:17;99343.59;;;20.23;70.85
54270;BME280;40181;51.560;13.000;2023-08-06T12:57:46;99329.75;;;20.34;71.31
54270;BME280;40181;51.560;13.000;2023-08-06T13:00:15;99330.47;;;20.38;70.86
54270;BME280;40181;51.560;13.000;2023-08-06T13:02:44;99330.09;;;20.45;69.38
54270;BME280;40181;51.560;13.000;2023-08-06T13:05:13;99328.81;;;20.54;69.42